createdAt,value
2022-08-02T00:00:57.404Z,100804.56
2022-08-02T00:03:24.889Z,100807.50
2022-08-02T00:05:53.444Z,100808.94
2022-08-02T00:08:22.441Z,100811.91
2022-08-02T00:10:50.187Z,100819.91
2022-08-02T00:13:17.905Z,100826.88
2022-08-02T00:15:44.994Z,100835.34
2022-08-02T00:18:21.127Z,100833.63
2022-08-02T00:20:48.098Z,100840.81
2022-08-02T00:23:15.765Z,100842.69
2022-08-02T00:25:55.106Z,100842.06
2022-08-02T00:28:27.186Z,100838.84
2022-08-02T00:30:58.341Z,100847.69
2022-08-02T00:34:26.622Z,100842.59
2022-08-02T00:36:22.345Z,100845.56
2022-08-02T00:38:50.856Z,100847.25
2022-08-02T00:41:20.446Z,100839.41
2022-08-02T00:43:48.870Z,100842.16
2022-08-02T00:46:18.108Z,100843.22
2022-08-02T00:48:45.316Z,100842.97
2022-08-02T00:51:13.018Z,100840.19
2022-08-02T00:53:40.489Z,100839.34
2022-08-02T00:56:07.779Z,100833.22
2022-08-02T00:58:34.868Z,100835.28
2022-08-02T01:01:02.178Z,100838.44
2022-08-02T01:03:29.279Z,100832.50
2022-08-02T01:06:10.890Z,100837.31
2022-08-02T01:08:41.755Z,100827.81
2022-08-02T01:11:10.888Z,100827.81
2022-08-02T01:13:38.006Z,100837.69
2022-08-02T01:16:15.106Z,100833.19
2022-08-02T01:18:50.010Z,100830.00
2022-08-02T01:21:33.846Z,100836.31
2022-08-02T01:24:45.506Z,100831.22
2022-08-02T01:27:38.863Z,100839.69
2022-08-02T01:30:07.334Z,100843.22
2022-08-02T01:32:42.865Z,100848.03
2022-08-02T01:35:17.940Z,100853.06
2022-08-02T01:38:17.608Z,100840.81
2022-08-02T01:40:46.054Z,100840.53
2022-08-02T01:43:14.544Z,100845.38
2022-08-02T01:45:42.891Z,100842.19
2022-08-02T01:48:12.026Z,100838.13
2022-08-02T01:50:41.297Z,100842.13
2022-08-02T01:53:10.832Z,100844.41
2022-08-02T01:55:58.304Z,100843.78
2022-08-02T01:58:35.437Z,100842.66
2022-08-02T02:01:04.535Z,100842.00
2022-08-02T02:03:33.751Z,100851.28
2022-08-02T02:06:03.404Z,100853.81
2022-08-02T02:08:36.518Z,100857.81
2022-08-02T02:12:05.937Z,100848.94
2022-08-02T02:13:53.246Z,100853.09
2022-08-02T02:16:22.844Z,100858.94
2022-08-02T02:18:52.457Z,100868.19
2022-08-02T02:21:20.607Z,100872.66
2022-08-02T02:23:47.670Z,100875.34
2022-08-02T02:26:20.865Z,100875.34
2022-08-02T02:29:02.633Z,100875.06
2022-08-02T02:31:38.251Z,100877.78
2022-08-02T02:34:13.309Z,100876.09
2022-08-02T02:36:45.003Z,100885.84
2022-08-02T02:39:15.810Z,100880.34
2022-08-02T02:41:44.678Z,100884.78
2022-08-02T02:44:17.536Z,100877.41
2022-08-02T02:46:45.504Z,100881.00
2022-08-02T02:49:13.378Z,100881.00
2022-08-02T02:51:41.294Z,100881.44
2022-08-02T02:54:33.587Z,100887.38
2022-08-02T02:57:00.853Z,100887.38
2022-08-02T02:59:28.810Z,100894.97
2022-08-02T03:01:58.314Z,100892.03
2022-08-02T03:04:55.563Z,100893.75
2022-08-02T03:07:16.363Z,100903.00
2022-08-02T03:09:44.172Z,100904.72
2022-08-02T03:12:14.431Z,100903.84
2022-08-02T03:14:49.335Z,100903.19
2022-08-02T03:17:16.762Z,100906.13
2022-08-02T03:19:45.115Z,100908.22
2022-08-02T03:22:12.900Z,100910.28
2022-08-02T03:24:40.788Z,100906.88
2022-08-02T03:27:08.115Z,100910.88
2022-08-02T03:29:35.151Z,100911.06
2022-08-02T03:32:03.259Z,100913.81
2022-08-02T03:34:30.575Z,100917.78
2022-08-02T03:36:58.219Z,100924.13
2022-08-02T03:39:26.717Z,100925.34
2022-08-02T03:41:55.445Z,100925.34
2022-08-02T03:44:24.184Z,100940.28
2022-08-02T03:46:53.234Z,100941.72
2022-08-02T03:49:21.186Z,100952.69
2022-08-02T03:51:48.742Z,100958.53
2022-08-02T03:54:17.995Z,100964.03
2022-08-02T03:56:45.975Z,100968.84
2022-08-02T03:59:15.019Z,100968.19
2022-08-02T04:01:42.387Z,100979.16
2022-08-02T04:04:10.239Z,100985.84
2022-08-02T04:06:39.876Z,100987.91
2022-08-02T04:09:09.615Z,100998.25
2022-08-02T04:11:37.859Z,101011.44
2022-08-02T04:14:11.351Z,101013.53
2022-08-02T04:16:48.613Z,101022.13
2022-08-02T04:19:24.771Z,101026.09
2022-08-02T04:21:54.054Z,101030.41
2022-08-02T04:24:28.082Z,101032.50
2022-08-02T04:27:06.568Z,101041.06
2022-08-02T04:29:35.408Z,101044.19
2022-08-02T04:32:04.558Z,101051.56
2022-08-02T04:34:31.936Z,101055.13
2022-08-02T04:37:00.448Z,101050.69
2022-08-02T04:39:28.185Z,101058.03
2022-08-02T04:41:57.711Z,101071.25
2022-08-02T04:44:25.323Z,101077.09
2022-08-02T04:46:52.842Z,101078.72
2022-08-02T04:49:20.325Z,101081.47
2022-08-02T04:51:47.577Z,101088.78
2022-08-02T04:54:14.666Z,101085.03
2022-08-02T04:56:42.325Z,101087.78
2022-08-02T04:59:10.334Z,101097.69
2022-08-02T05:01:37.728Z,101099.25
2022-08-02T05:04:05.889Z,101099.25
2022-08-02T05:06:32.884Z,101100.50
2022-08-02T05:09:00.040Z,101111.25
2022-08-02T05:11:34.515Z,101111.25
2022-08-02T05:14:05.737Z,101120.69
2022-08-02T05:16:33.564Z,101128.38
2022-08-02T05:19:02.025Z,101138.28
2022-08-02T05:21:31.866Z,101143.56
2022-08-02T05:23:59.441Z,101151.59
2022-08-02T05:26:26.795Z,101150.56
2022-08-02T05:28:56.563Z,101159.47
2022-08-02T05:31:23.890Z,101172.09
2022-08-02T05:33:51.116Z,101180.31
2022-08-02T05:36:18.325Z,101192.31
2022-08-02T05:38:50.423Z,101185.63
2022-08-02T05:41:19.451Z,101195.06
2022-08-02T05:43:49.485Z,101192.31
2022-08-02T05:46:17.363Z,101194.56
2022-08-02T05:48:45.811Z,101199.38
2022-08-02T05:51:34.502Z,101202.94
2022-08-02T05:54:25.845Z,101197.84
2022-08-02T05:57:04.070Z,101211.38
2022-08-02T05:59:46.505Z,101213.41
2022-08-02T06:02:33.776Z,101219.09
2022-08-02T06:05:14.242Z,101213.41
2022-08-02T06:07:44.646Z,101224.84
2022-08-02T06:10:14.530Z,101225.06
2022-08-02T06:12:54.673Z,101232.22
2022-08-02T06:15:21.722Z,101229.31
2022-08-02T06:17:49.372Z,101223.66
2022-08-02T06:20:24.290Z,101226.19
2022-08-02T06:22:53.529Z,101222.13
2022-08-02T06:25:50.567Z,101226.75
2022-08-02T06:28:11.655Z,101226.75
2022-08-02T06:30:39.442Z,101228.63
2022-08-02T06:33:06.438Z,101226.06
2022-08-02T06:36:01.420Z,101234.28
2022-08-02T06:38:41.684Z,101236.00
2022-08-02T06:41:14.163Z,101231.88
2022-08-02T06:44:19.545Z,101241.41
2022-08-02T06:47:10.071Z,101251.16
2022-08-02T06:49:52.766Z,101249.94
2022-08-02T06:52:29.439Z,101250.06
2022-08-02T06:55:03.271Z,101248.69
2022-08-02T06:57:31.401Z,101246.84
2022-08-02T07:00:38.396Z,101249.19
2022-08-02T07:03:05.135Z,101246.56
2022-08-02T07:05:32.395Z,101257.38
2022-08-02T07:07:59.526Z,101256.31
2022-08-02T07:10:27.223Z,101264.16
2022-08-02T07:12:59.534Z,101269.78
2022-08-02T07:15:27.113Z,101262.03
2022-08-02T07:17:54.298Z,101278.78
2022-08-02T07:20:24.846Z,101261.78
2022-08-02T07:22:52.634Z,101273.44
2022-08-02T07:25:19.939Z,101270.13
2022-08-02T07:27:46.963Z,101266.38
2022-08-02T07:30:14.140Z,101267.50
2022-08-02T07:32:41.303Z,101261.84
2022-08-02T07:35:09.099Z,101267.59
2022-08-02T07:37:54.984Z,101255.63
2022-08-02T07:40:27.497Z,101258.84
2022-08-02T07:43:03.038Z,101249.91
2022-08-02T07:45:33.331Z,101248.97
2022-08-02T07:48:04.199Z,101248.38
2022-08-02T07:50:31.300Z,101248.22
2022-08-02T07:52:59.322Z,101241.50
2022-08-02T07:55:39.552Z,101243.19
2022-08-02T07:58:12.457Z,101243.88
2022-08-02T08:00:42.745Z,101244.53
2022-08-02T08:03:10.235Z,101228.16
2022-08-02T08:05:37.287Z,101228.84
2022-08-02T08:08:06.142Z,101228.25
2022-08-02T08:10:33.529Z,101226.66
2022-08-02T08:13:00.547Z,101227.97
2022-08-02T08:15:27.585Z,101237.53
2022-08-02T08:17:54.686Z,101233.53
2022-08-02T08:20:25.322Z,101222.19
2022-08-02T08:22:53.233Z,101226.66
2022-08-02T08:25:20.410Z,101225.25
2022-08-02T08:27:49.905Z,101227.41
2022-08-02T08:30:17.026Z,101222.41
2022-08-02T08:32:44.895Z,101222.22
2022-08-02T08:35:32.848Z,101217.19
2022-08-02T08:38:02.044Z,101225.03
2022-08-02T08:40:32.541Z,101228.91
2022-08-02T08:42:59.581Z,101218.41
2022-08-02T08:45:26.999Z,101227.94
2022-08-02T08:48:08.242Z,101218.09
2022-08-02T08:50:39.035Z,101222.81
2022-08-02T08:53:08.771Z,101229.22
2022-08-02T08:55:39.318Z,101220.41
2022-08-02T08:58:07.542Z,101226.00
2022-08-02T09:00:36.895Z,101223.53
2022-08-02T09:03:07.062Z,101217.63
2022-08-02T09:05:40.500Z,101215.13
2022-08-02T09:08:08.059Z,101217.25
2022-08-02T09:10:47.708Z,101216.66
2022-08-02T09:13:45.575Z,101215.25
2022-08-02T09:16:14.759Z,101219.97
2022-08-02T09:18:46.889Z,101212.84
2022-08-02T09:21:16.905Z,101219.06
2022-08-02T09:23:50.528Z,101219.28
2022-08-02T09:26:22.843Z,101205.75
2022-08-02T09:28:52.530Z,101220.63
2022-08-02T09:31:22.783Z,101221.72
2022-08-02T09:33:56.696Z,101211.84
2022-08-02T09:36:26.119Z,101217.78
2022-08-02T09:39:01.771Z,101222.09
2022-08-02T09:41:36.144Z,101222.97
2022-08-02T09:44:07.121Z,101223.81
2022-08-02T09:46:40.356Z,101219.66
2022-08-02T09:49:20.114Z,101222.88
2022-08-02T09:51:47.445Z,101223.94
2022-08-02T09:54:42.909Z,101215.50
2022-08-02T09:57:10.726Z,101220.59
2022-08-02T09:59:37.730Z,101217.53
2022-08-02T10:02:16.934Z,101222.63
2022-08-02T10:04:52.444Z,101219.91
2022-08-02T10:07:22.687Z,101218.03
2022-08-02T10:09:52.079Z,101212.34
2022-08-02T10:12:39.189Z,101222.34
2022-08-02T10:15:07.497Z,101213.25
2022-08-02T10:17:35.886Z,101203.72
2022-08-02T10:20:04.912Z,101204.59
2022-08-02T10:22:34.532Z,101195.50
2022-08-02T10:25:04.119Z,101197.22
2022-08-02T10:27:55.154Z,101192.16
2022-08-02T10:30:21.016Z,101193.00
2022-08-02T10:32:49.855Z,101194.25
2022-08-02T10:35:25.946Z,101182.63
2022-08-02T10:38:04.529Z,101186.91
2022-08-02T10:40:52.013Z,101174.16
2022-08-02T10:43:37.255Z,101174.81
2022-08-02T10:46:36.523Z,101184.16
2022-08-02T10:49:38.599Z,101176.50
2022-08-02T10:52:07.736Z,101161.03
2022-08-02T10:54:42.120Z,101168.47
2022-08-02T10:57:36.396Z,101161.25
2022-08-02T11:00:14.646Z,101164.06
2022-08-02T11:02:53.090Z,101169.97
2022-08-02T11:05:42.563Z,101160.22
2022-08-02T11:08:22.647Z,101163.81
2022-08-02T11:10:49.826Z,101162.97
2022-08-02T11:13:19.798Z,101168.47
2022-08-02T11:15:53.571Z,101158.28
2022-08-02T11:18:22.230Z,101160.84
2022-08-02T11:21:25.739Z,101161.47
2022-08-02T11:23:53.197Z,101153.59
2022-08-02T11:26:29.748Z,101146.38
2022-08-02T11:28:58.935Z,101154.44
2022-08-02T11:31:27.068Z,101147.22
2022-08-02T11:33:55.166Z,101140.66
2022-08-02T11:37:14.440Z,101139.78
2022-08-02T11:40:23.441Z,101136.13
2022-08-02T11:43:39.469Z,101126.75
2022-08-02T11:46:40.459Z,101126.69
2022-08-02T11:49:42.488Z,101121.16
2022-08-02T11:52:48.666Z,101120.94
2022-08-02T11:55:49.462Z,101122.25
2022-08-02T11:58:51.447Z,101117.81
2022-08-02T12:01:53.460Z,101115.19
2022-08-02T12:04:54.632Z,101110.44
2022-08-02T12:08:12.454Z,101103.53
2022-08-02T12:11:17.399Z,101106.91
2022-08-02T12:14:19.453Z,101101.50
2022-08-02T12:17:38.419Z,101097.66
2022-08-02T12:20:51.451Z,101103.63
2022-08-02T12:24:01.008Z,101106.78
2022-08-02T12:27:02.442Z,101106.78
2022-08-02T12:30:15.164Z,101092.97
2022-08-02T12:33:23.425Z,101099.72
2022-08-02T12:36:41.419Z,101083.13
2022-08-02T12:40:00.435Z,101087.75
2022-08-02T12:43:13.437Z,101082.63
2022-08-02T12:46:14.416Z,101080.59
2022-08-02T12:49:18.360Z,101078.31
2022-08-02T12:52:55.397Z,101068.88
2022-08-02T12:56:06.417Z,101075.97
2022-08-02T12:59:10.388Z,101070.75
2022-08-02T13:02:15.614Z,101074.16
2022-08-02T13:05:16.425Z,101063.75
2022-08-02T13:08:18.391Z,101064.28
2022-08-02T13:11:15.463Z,101061.84
2022-08-02T13:14:16.387Z,101065.59
2022-08-02T13:17:17.383Z,101057.75
2022-08-02T13:20:21.383Z,101052.13
2022-08-02T13:23:25.365Z,101054.09
2022-08-02T13:26:40.370Z,101052.41
2022-08-02T13:29:41.394Z,101042.19
2022-08-02T13:32:42.407Z,101046.25
2022-08-02T13:35:43.358Z,101037.34
2022-08-02T13:38:44.387Z,101038.09
2022-08-02T13:41:46.786Z,101032.22
2022-08-02T13:44:48.352Z,101031.41
2022-08-02T13:48:04.403Z,101042.31
2022-08-02T13:51:06.352Z,101035.03
2022-08-02T13:54:07.369Z,101026.38
2022-08-02T13:57:08.339Z,101029.03
2022-08-02T14:00:09.365Z,101024.38
2022-08-02T14:03:12.005Z,101020.41
2022-08-02T14:06:13.356Z,101012.47
2022-08-02T14:09:17.129Z,101014.63
2022-08-02T14:12:21.342Z,101013.72
2022-08-02T14:15:23.378Z,101015.88
2022-08-02T14:18:27.367Z,101000.78
2022-08-02T14:21:28.321Z,101008.13
2022-08-02T14:24:34.325Z,101009.00
2022-08-02T14:27:39.285Z,101010.91
2022-08-02T14:30:40.330Z,101002.25
2022-08-02T14:33:41.353Z,101004.78
2022-08-02T14:36:42.329Z,101000.91
2022-08-02T14:39:59.992Z,101001.53
2022-08-02T14:43:01.366Z,100987.97
2022-08-02T14:45:42.456Z,100982.56
2022-08-02T14:48:12.402Z,100988.84
2022-08-02T14:50:39.444Z,100986.81
2022-08-02T14:53:06.439Z,100984.06
2022-08-02T14:55:40.488Z,100984.06
2022-08-02T14:58:07.389Z,100985.50
2022-08-02T15:00:40.093Z,100974.91
2022-08-02T15:03:09.043Z,100967.41
2022-08-02T15:05:36.422Z,100968.69
2022-08-02T15:08:03.778Z,100975.97
2022-08-02T15:10:30.760Z,100967.84
2022-08-02T15:12:57.764Z,100965.94
2022-08-02T15:15:26.132Z,100974.38
2022-08-02T15:17:53.981Z,100964.84
2022-08-02T15:20:25.107Z,100962.06
2022-08-02T15:22:54.311Z,100956.59
2022-08-02T15:25:22.358Z,100963.00
2022-08-02T15:27:52.254Z,100964.06
2022-08-02T15:30:19.419Z,100963.78
2022-08-02T15:32:52.901Z,100953.03
2022-08-02T15:35:21.358Z,100963.28
2022-08-02T15:37:48.335Z,100955.69
2022-08-02T15:40:16.580Z,100955.69
2022-08-02T15:42:44.814Z,100962.84
2022-08-02T15:45:15.653Z,100956.25
2022-08-02T15:47:47.839Z,100952.03
2022-08-02T15:50:16.323Z,100953.31
2022-08-02T15:52:43.675Z,100948.72
2022-08-02T15:55:10.706Z,100953.03
2022-08-02T15:57:37.677Z,100950.28
2022-08-02T16:00:06.714Z,100948.59
2022-08-02T16:02:45.331Z,100945.81
2022-08-02T16:05:14.611Z,100948.81
2022-08-02T16:07:41.596Z,100957.81
2022-08-02T16:10:11.023Z,100944.47
2022-08-02T16:12:38.329Z,100943.16
2022-08-02T16:15:06.012Z,100941.91
2022-08-02T16:17:51.733Z,100945.63
2022-08-02T16:20:21.225Z,100945.16
2022-08-02T16:22:48.523Z,100954.78
2022-08-02T16:25:17.312Z,100947.41
2022-08-02T16:27:57.476Z,100950.00
2022-08-02T16:30:32.277Z,100943.63
2022-08-02T16:32:59.221Z,100942.88
2022-08-02T16:35:28.073Z,100943.34
2022-08-02T16:37:55.146Z,100946.97
2022-08-02T16:40:29.205Z,100939.09
2022-08-02T16:42:56.780Z,100948.09
2022-08-02T16:45:24.183Z,100949.41
2022-08-02T16:47:57.441Z,100946.00
2022-08-02T16:50:28.433Z,100949.84
2022-08-02T16:53:34.097Z,100948.19
2022-08-02T16:56:04.900Z,100949.03
2022-08-02T16:58:32.204Z,100946.47
2022-08-02T17:00:59.719Z,100949.03
2022-08-02T17:03:55.498Z,100943.19
2022-08-02T17:06:16.119Z,100947.97
2022-08-02T17:08:54.559Z,100943.66
2022-08-02T17:11:23.921Z,100956.84
2022-08-02T17:13:52.041Z,100950.09
2022-08-02T17:16:25.820Z,100959.69
2022-08-02T17:18:54.903Z,100962.44
2022-08-02T17:21:22.001Z,100958.84
2022-08-02T17:24:06.118Z,100961.63
2022-08-02T17:26:37.530Z,100968.22
2022-08-02T17:29:16.204Z,100965.06
2022-08-02T17:32:02.502Z,100968.91
2022-08-02T17:34:34.795Z,100958.28
2022-08-02T17:37:05.538Z,100965.34
2022-08-02T17:39:44.516Z,100961.78
2022-08-02T17:42:23.078Z,100962.00
2022-08-02T17:45:00.901Z,100968.22
2022-08-02T17:47:42.320Z,100974.22
2022-08-02T17:50:12.357Z,100965.53
2022-08-02T17:52:49.911Z,100981.47
2022-08-02T17:55:20.784Z,100974.72
2022-08-02T17:57:55.549Z,100980.50
2022-08-02T18:00:26.515Z,100976.25
2022-08-02T18:02:55.548Z,100978.63
2022-08-02T18:05:35.363Z,100977.16
2022-08-02T18:08:08.115Z,100980.38
2022-08-02T18:10:36.005Z,100978.28
2022-08-02T18:13:05.242Z,100972.34
2022-08-02T18:15:33.313Z,100973.66
2022-08-02T18:18:00.918Z,100978.78
2022-08-02T18:20:27.918Z,100981.13
2022-08-02T18:22:58.267Z,100972.88
2022-08-02T18:25:37.014Z,100975.03
2022-08-02T18:28:11.785Z,100977.59
2022-08-02T18:30:39.039Z,100980.19
2022-08-02T18:33:57.034Z,100982.50
2022-08-02T18:35:55.327Z,100980.69
2022-08-02T18:38:26.779Z,100984.72
2022-08-02T18:40:54.353Z,100972.66
2022-08-02T18:43:25.293Z,100980.13
2022-08-02T18:46:07.304Z,100990.13
2022-08-02T18:48:44.146Z,100983.78
2022-08-02T18:51:13.599Z,100986.78
2022-08-02T18:53:41.739Z,100986.16
2022-08-02T18:56:20.210Z,100986.81
2022-08-02T18:58:56.193Z,100991.06
2022-08-02T19:01:33.792Z,100990.66
2022-08-02T19:04:04.760Z,100999.63
2022-08-02T19:06:32.611Z,100999.22
2022-08-02T19:09:12.653Z,101001.53
2022-08-02T19:11:48.293Z,101003.25
2022-08-02T19:14:27.483Z,101013.88
2022-08-02T19:19:47.964Z,101010.25
2022-08-02T19:22:20.235Z,101019.19
2022-08-02T19:24:51.775Z,101025.34
2022-08-02T19:27:31.976Z,101026.22
2022-08-02T19:30:07.439Z,101030.66
2022-08-02T19:32:41.337Z,101038.72
2022-08-02T19:35:30.846Z,101040.44
2022-08-02T19:38:11.502Z,101047.22
2022-08-02T19:40:43.520Z,101044.03
2022-08-02T19:44:21.288Z,101052.72
2022-08-02T19:46:00.297Z,101050.59
2022-08-02T19:48:28.143Z,101047.63
2022-08-02T19:51:01.041Z,101056.28
2022-08-02T19:53:47.211Z,101061.56
2022-08-02T19:56:19.354Z,101066.44
2022-08-02T19:58:53.865Z,101063.88
2022-08-02T20:01:28.110Z,101072.56
2022-08-02T20:04:14.787Z,101075.72
2022-08-02T20:06:51.137Z,101072.75
2022-08-02T20:09:22.913Z,101071.47
2022-08-02T20:11:54.309Z,101073.78
2022-08-02T20:14:26.876Z,101076.09
2022-08-02T20:16:57.489Z,101084.78
2022-08-02T20:19:25.248Z,101073.34
2022-08-02T20:21:59.984Z,101080.09
2022-08-02T20:24:37.502Z,101085.13
2022-08-02T20:27:04.589Z,101078.78
2022-08-02T20:29:43.427Z,101077.09
2022-08-02T20:32:21.767Z,101085.34
2022-08-02T20:34:50.596Z,101091.91
2022-08-02T20:38:00.052Z,101090.03
2022-08-02T20:40:06.364Z,101086.19
2022-08-02T20:42:34.551Z,101092.09
2022-08-02T20:45:03.544Z,101089.09
2022-08-02T20:47:39.181Z,101096.06
2022-08-02T20:50:34.121Z,101099.84
2022-08-02T20:53:04.896Z,101094.31
2022-08-02T20:55:33.181Z,101104.22
2022-08-02T20:58:02.016Z,101102.72
2022-08-02T21:00:31.874Z,101097.63
2022-08-02T21:03:00.678Z,101101.84
2022-08-02T21:05:54.084Z,101101.41
2022-08-02T21:08:16.192Z,101102.66
2022-08-02T21:10:52.374Z,101108.53
2022-08-02T21:16:27.227Z,101101.47
2022-08-02T21:18:59.795Z,101097.03
2022-08-02T21:21:28.222Z,101102.88
2022-08-02T21:24:00.093Z,101106.69
2022-08-02T21:26:31.196Z,101106.25
2022-08-02T21:29:03.757Z,101107.69
2022-08-02T21:31:35.932Z,101107.44
2022-08-02T21:34:21.638Z,101115.25
2022-08-02T21:36:52.765Z,101114.13
2022-08-02T21:39:20.497Z,101111.78
2022-08-02T21:41:48.204Z,101121.47
2022-08-02T21:44:16.911Z,101121.66
2022-08-02T21:46:49.945Z,101125.25
2022-08-02T21:49:40.919Z,101122.91
2022-08-02T21:52:09.580Z,101119.50
2022-08-02T21:54:39.938Z,101116.09
2022-08-02T21:57:15.708Z,101118.19
2022-08-02T21:59:46.329Z,101118.59
2022-08-02T22:02:15.736Z,101123.63
2022-08-02T22:04:47.363Z,101131.38
2022-08-02T22:07:24.609Z,101128.63
2022-08-02T22:09:53.172Z,101128.19
2022-08-02T22:12:21.918Z,101137.69
2022-08-02T22:14:55.476Z,101134.88
2022-08-02T22:17:51.122Z,101138.84
2022-08-02T22:20:20.025Z,101138.56
2022-08-02T22:22:52.549Z,101140.84
2022-08-02T22:25:31.056Z,101140.41
2022-08-02T22:28:35.943Z,101143.53
2022-08-02T22:30:58.206Z,101155.28
2022-08-02T22:36:44.081Z,101152.28
2022-08-02T22:39:19.283Z,101148.03
2022-08-02T22:42:05.789Z,101150.31
2022-08-02T22:44:35.727Z,101151.69
2022-08-02T22:47:07.264Z,101160.31
2022-08-02T22:49:51.716Z,101159.84
2022-08-02T22:52:23.985Z,101157.47
2022-08-02T22:54:51.321Z,101160.81
2022-08-02T22:57:30.411Z,101165.81
2022-08-02T22:58:47.334Z,101009.22
2022-08-02T22:59:02.194Z,101099.16
2022-08-02T22:59:05.142Z,101150.00
2022-08-02T23:00:00.493Z,101162.63
2022-08-02T23:02:28.206Z,101162.16
2022-08-02T23:04:57.242Z,101158.94
2022-08-02T23:07:24.279Z,101164.81
2022-08-02T23:09:51.351Z,101167.72
2022-08-02T23:12:21.961Z,101161.75
2022-08-02T23:14:52.009Z,101171.22
2022-08-02T23:17:38.281Z,101159.78
2022-08-02T23:20:07.669Z,101173.88
2022-08-02T23:22:34.599Z,101163.66
2022-08-02T23:25:02.394Z,101176.72
2022-08-02T23:27:31.810Z,101172.44
2022-08-02T23:30:00.448Z,101166.50
2022-08-02T23:32:28.236Z,101170.63
2022-08-02T23:34:56.693Z,101174.38
2022-08-02T23:37:25.131Z,101182.13
2022-08-02T23:39:52.142Z,101179.78
2022-08-02T23:42:33.373Z,101180.81
2022-08-02T23:45:00.615Z,101186.00
2022-08-02T23:47:27.966Z,101186.38
2022-08-02T23:49:54.915Z,101182.13
2022-08-02T23:52:21.969Z,101194.31
2022-08-02T23:54:48.989Z,101184.78
2022-08-02T23:57:19.708Z,101193.34
2022-08-02T23:59:50.031Z,101192.47
